»·PEaware :: N292MC P14-P52

N292MC :: P14-P52

FLIGHT INFORMATION

Flight Status: Arrived
Operator: Privately registered:
United States
More flights under this callsign
Pilot: Maurice C. (12314)
Aircraft: Unknown
(KODI)
More flights by this aircraft type
Origin: P14 Holbrook Mun
United States
Destination: P52 Cottonwood
United States
More flights between these airports :: More routes between these airports
Route: DCT
File this flight plan on PilotEdge
Remarks: ALPHABET CHALLENGE
Altitude:
(Current/Filed)
8,500ft
Speed:
(Current/Filed)
180kts
Departed: 27-Oct-20 12:27 PM
Arrived: 27-Oct-20 01:02 PM
Distance/Time
Traveled:
94nm/0:35
Distance/Time
To Go:
Arrived

Flight Plot

Page will automatically refresh every two minutes.

Flight plan parsing failed; only flown route is shown


Map Options




Map Legend


Flown Route
Filed Route
Departure Airport
Arrival Airport
Navaid (VOR, NDB)
Fix

Horizontal Profiles

Position Reports

Time Latitude Longitude Heading Altitude Ground
Speed
27-Oct-20 12:22 34.935300 -110.142629 312 5243ft 0kts
27-Oct-20 12:23 34.935300 -110.142629 312 5243ft 0kts
27-Oct-20 12:24 34.935864 -110.142582 323 5243ft 0kts
27-Oct-20 12:25 34.936944 -110.142472 39 5244ft 28kts
27-Oct-20 12:26 34.958822 -110.121879 10 5785ft 144kts
27-Oct-20 12:27 34.975592 -110.157831 240 6467ft 164kts
27-Oct-20 12:28 34.950627 -110.203830 242 7402ft 163kts
27-Oct-20 12:29 34.932502 -110.254366 253 8298ft 164kts
27-Oct-20 12:31 34.916679 -110.310725 253 8506ft 187kts
27-Oct-20 12:32 34.901242 -110.371868 255 8501ft 189kts
27-Oct-20 12:33 34.886059 -110.433379 255 8499ft 190kts
27-Oct-20 12:34 34.870866 -110.494982 255 8497ft 189kts
27-Oct-20 12:35 34.855719 -110.556448 255 8491ft 190kts
27-Oct-20 12:36 34.840501 -110.618257 255 8486ft 190kts
27-Oct-20 12:37 34.825434 -110.679522 255 8546ft 188kts
27-Oct-20 12:38 34.810384 -110.740844 255 8545ft 189kts
27-Oct-20 12:39 34.795304 -110.802366 255 8539ft 189kts
27-Oct-20 12:40 34.780328 -110.863884 255 8534ft 189kts
27-Oct-20 12:41 34.765523 -110.925266 255 8532ft 189kts
27-Oct-20 12:42 34.750742 -110.986646 255 8525ft 189kts
27-Oct-20 12:43 34.735957 -111.048107 255 8520ft 189kts
27-Oct-20 12:44 34.721157 -111.109729 255 8515ft 189kts
27-Oct-20 12:45 34.706329 -111.171163 255 8501ft 189kts
27-Oct-20 12:46 34.700154 -111.233987 271 8470ft 187kts
27-Oct-20 12:46 34.700114 -111.286344 271 8477ft 182kts
27-Oct-20 12:48 34.699684 -111.359549 270 8448ft 188kts
27-Oct-20 12:48 34.700366 -111.411372 272 8441ft 182kts
27-Oct-20 12:50 34.700140 -111.484191 272 8435ft 188kts
27-Oct-20 12:50 34.700713 -111.537412 274 8435ft 189kts
27-Oct-20 12:51 34.701579 -111.601294 274 8435ft 188kts
27-Oct-20 12:52 34.702268 -111.665379 273 8476ft 187kts
27-Oct-20 12:53 34.702925 -111.726517 273 8374ft 155kts
27-Oct-20 12:54 34.702442 -111.774416 273 7807ft 131kts
27-Oct-20 12:55 34.703825 -111.819780 277 7401ft 136kts
27-Oct-20 12:56 34.706448 -111.869656 277 6857ft 149kts
27-Oct-20 12:57 34.709156 -111.918416 277 6088ft 139kts
27-Oct-20 12:58 34.711249 -111.964218 273 5432ft 127kts
27-Oct-20 12:59 34.701507 -112.001450 269 4834ft 106kts
27-Oct-20 13:00 34.715173 -112.027309 340 3922ft 89kts
27-Oct-20 13:01 34.728317 -112.034191 335 3550ft 10kts
27-Oct-20 13:02 34.731084 -112.036265 335 3549ft 18kts
27-Oct-20 13:03 34.732721 -112.038218 148 3544ft 9kts
27-Oct-20 13:04 34.732668 -112.037870 59 3544ft 0kts
27-Oct-20 13:05 34.732668 -112.037870 59 3544ft 0kts
27-Oct-20 13:06 34.732668 -112.037870 59 3544ft 0kts
27-Oct-20 13:07 34.732668 -112.037870 59 3544ft 0kts
27-Oct-20 13:08 34.732668 -112.037870 59 3544ft 0kts
27-Oct-20 13:09 34.732668 -112.037870 59 3544ft 0kts
27-Oct-20 13:10 34.732668 -112.037870 59 3544ft 0kts
27-Oct-20 13:11 34.732668 -112.037870 59 3544ft 0kts
27-Oct-20 13:12 34.732668 -112.037870 59 3544ft 0kts
27-Oct-20 13:13 34.732668 -112.037870 59 3544ft 0kts

Navigation Log

Ident Type
Flight plan parsing failed, navigation log unavailable